sensor_id;sensor_type;location;lat;lon;timestamp;pressure;altitude;pressure_sealevel;temperature
61703;BMP280;47622;47.726;3.298;2023-05-16T00:01:10;99299.28;;;10.16
61703;BMP280;47622;47.726;3.298;2023-05-16T00:03:38;99300.84;;;10.17
61703;BMP280;47622;47.726;3.298;2023-05-16T00:06:04;99298.59;;;10.11
61703;BMP280;47622;47.726;3.298;2023-05-16T00:08:30;99293.75;;;10.04
61703;BMP280;47622;47.726;3.298;2023-05-16T00:10:55;99290.34;;;10.03
61703;BMP280;47622;47.726;3.298;2023-05-16T00:13:21;99291.72;;;10.01
61703;BMP280;47622;47.726;3.298;2023-05-16T00:15:50;99290.53;;;10.07
61703;BMP280;47622;47.726;3.298;2023-05-16T00:18:17;99292.31;;;10.12
61703;BMP280;47622;47.726;3.298;2023-05-16T00:20:43;99286.06;;;10.21
61703;BMP280;47622;47.726;3.298;2023-05-16T00:23:09;99287.06;;;10.12
61703;BMP280;47622;47.726;3.298;2023-05-16T00:25:35;99279.88;;;10.17
61703;BMP280;47622;47.726;3.298;2023-05-16T00:28:01;99290.53;;;10.07
61703;BMP280;47622;47.726;3.298;2023-05-16T00:30:27;99282.97;;;10.05
61703;BMP280;47622;47.726;3.298;2023-05-16T00:32:54;99291.69;;;10.15
61703;BMP280;47622;47.726;3.298;2023-05-16T00:35:20;99287.41;;;10.05
61703;BMP280;47622;47.726;3.298;2023-05-16T00:37:46;99286.28;;;10.11
61703;BMP280;47622;47.726;3.298;2023-05-16T00:40:11;99285.31;;;10.07
61703;BMP280;47622;47.726;3.298;2023-05-16T00:42:39;99276.38;;;10.08
61703;BMP280;47622;47.726;3.298;2023-05-16T00:45:05;99281.91;;;10.20
61703;BMP280;47622;47.726;3.298;2023-05-16T00:47:31;99276.28;;;10.13
61703;BMP280;47622;47.726;3.298;2023-05-16T00:49:57;99273.66;;;10.13
61703;BMP280;47622;47.726;3.298;2023-05-16T00:52:23;99272.69;;;10.09
61703;BMP280;47622;47.726;3.298;2023-05-16T00:54:50;99274.03;;;10.06
61703;BMP280;47622;47.726;3.298;2023-05-16T00:57:15;99282.84;;;9.97
61703;BMP280;47622;47.726;3.298;2023-05-16T00:59:42;99281.78;;;9.98
61703;BMP280;47622;47.726;3.298;2023-05-16T01:02:08;99276.53;;;9.98
61703;BMP280;47622;47.726;3.298;2023-05-16T01:04:34;99277.16;;;9.95
61703;BMP280;47622;47.726;3.298;2023-05-16T01:07:01;99269.88;;;9.92
61703;BMP280;47622;47.726;3.298;2023-05-16T01:09:27;99274.44;;;9.86
61703;BMP280;47622;47.726;3.298;2023-05-16T01:12:01;99275.09;;;9.92
61703;BMP280;47622;47.726;3.298;2023-05-16T01:19:53;99268.97;;;9.96
61703;BMP280;47622;47.726;3.298;2023-05-16T01:27:44;99264.34;;;9.93
61703;BMP280;47622;47.726;3.298;2023-05-16T01:30:16;99273.84;;;10.03
61703;BMP280;47622;47.726;3.298;2023-05-16T01:32:42;99264.34;;;10.07
61703;BMP280;47622;47.726;3.298;2023-05-16T01:35:10;99266.44;;;10.05
61703;BMP280;47622;47.726;3.298;2023-05-16T01:37:41;99267.25;;;9.92
61703;BMP280;47622;47.726;3.298;2023-05-16T01:40:14;99268.78;;;9.93
61703;BMP280;47622;47.726;3.298;2023-05-16T01:42:44;99263.19;;;9.86
61703;BMP280;47622;47.726;3.298;2023-05-16T01:45:21;99266.69;;;9.95
61703;BMP280;47622;47.726;3.298;2023-05-16T01:47:59;99270.94;;;9.91
61703;BMP280;47622;47.726;3.298;2023-05-16T01:50:31;99268.97;;;9.83
61703;BMP280;47622;47.726;3.298;2023-05-16T01:53:07;99270.06;;;9.63
61703;BMP280;47622;47.726;3.298;2023-05-16T01:55:44;99270.50;;;9.84
61703;BMP280;47622;47.726;3.298;2023-05-16T01:58:11;99268.00;;;9.79
61703;BMP280;47622;47.726;3.298;2023-05-16T02:00:39;99266.63;;;9.81
61703;BMP280;47622;47.726;3.298;2023-05-16T02:03:06;99270.16;;;9.90
61703;BMP280;47622;47.726;3.298;2023-05-16T02:05:32;99276.72;;;9.88
61703;BMP280;47622;47.726;3.298;2023-05-16T02:07:58;99273.13;;;9.84
61703;BMP280;47622;47.726;3.298;2023-05-16T02:10:24;99275.38;;;9.90
61703;BMP280;47622;47.726;3.298;2023-05-16T02:12:50;99275.28;;;9.82
61703;BMP280;47622;47.726;3.298;2023-05-16T02:15:16;99275.38;;;9.76
61703;BMP280;47622;47.726;3.298;2023-05-16T02:17:41;99263.34;;;9.75
61703;BMP280;47622;47.726;3.298;2023-05-16T02:20:08;99278.66;;;9.68
61703;BMP280;47622;47.726;3.298;2023-05-16T02:22:35;99274.13;;;9.74
61703;BMP280;47622;47.726;3.298;2023-05-16T02:25:01;99276.50;;;9.70
61703;BMP280;47622;47.726;3.298;2023-05-16T02:27:28;99274.22;;;9.69
61703;BMP280;47622;47.726;3.298;2023-05-16T02:29:53;99274.38;;;9.72
61703;BMP280;47622;47.726;3.298;2023-05-16T02:32:19;99281.50;;;9.86
61703;BMP280;47622;47.726;3.298;2023-05-16T02:34:46;99271.28;;;9.70
61703;BMP280;47622;47.726;3.298;2023-05-16T02:37:12;99268.19;;;9.68
61703;BMP280;47622;47.726;3.298;2023-05-16T02:39:38;99275.38;;;9.76
61703;BMP280;47622;47.726;3.298;2023-05-16T02:42:05;99276.91;;;9.77
61703;BMP280;47622;47.726;3.298;2023-05-16T02:44:31;99277.69;;;9.78
61703;BMP280;47622;47.726;3.298;2023-05-16T02:46:56;99275.38;;;9.76
61703;BMP280;47622;47.726;3.298;2023-05-16T02:49:22;99272.28;;;9.74
61703;BMP280;47622;47.726;3.298;2023-05-16T02:51:47;99273.59;;;9.72
61703;BMP280;47622;47.726;3.298;2023-05-16T02:54:14;99273.09;;;9.56
61703;BMP280;47622;47.726;3.298;2023-05-16T02:56:40;99275.69;;;9.56
61703;BMP280;47622;47.726;3.298;2023-05-16T02:59:06;99279.94;;;9.52
61703;BMP280;47622;47.726;3.298;2023-05-16T03:01:33;99273.75;;;9.62
61703;BMP280;47622;47.726;3.298;2023-05-16T03:03:58;99274.91;;;9.56
61703;BMP280;47622;47.726;3.298;2023-05-16T03:06:24;99281.34;;;9.63
61703;BMP280;47622;47.726;3.298;2023-05-16T03:08:49;99273.16;;;9.51
61703;BMP280;47622;47.726;3.298;2023-05-16T03:11:16;99280.06;;;9.28
61703;BMP280;47622;47.726;3.298;2023-05-16T03:13:44;99287.63;;;9.30
61703;BMP280;47622;47.726;3.298;2023-05-16T03:16:10;99285.69;;;9.35
61703;BMP280;47622;47.726;3.298;2023-05-16T03:18:36;99279.97;;;9.33
61703;BMP280;47622;47.726;3.298;2023-05-16T03:21:01;99287.53;;;9.35
61703;BMP280;47622;47.726;3.298;2023-05-16T03:23:27;99289.69;;;9.33
61703;BMP280;47622;47.726;3.298;2023-05-16T03:25:53;99292.31;;;9.33
61703;BMP280;47622;47.726;3.298;2023-05-16T03:28:18;99281.75;;;9.19
61703;BMP280;47622;47.726;3.298;2023-05-16T03:30:44;99277.75;;;9.27
61703;BMP280;47622;47.726;3.298;2023-05-16T03:33:10;99280.84;;;9.29
61703;BMP280;47622;47.726;3.298;2023-05-16T03:35:36;99266.31;;;9.04
61703;BMP280;47622;47.726;3.298;2023-05-16T03:38:02;99275.97;;;9.03
61703;BMP280;47622;47.726;3.298;2023-05-16T03:40:28;99268.91;;;9.04
61703;BMP280;47622;47.726;3.298;2023-05-16T03:42:53;99283.25;;;9.06
61703;BMP280;47622;47.726;3.298;2023-05-16T03:45:19;99279.03;;;9.10
61703;BMP280;47622;47.726;3.298;2023-05-16T03:47:48;99282.78;;;9.04
61703;BMP280;47622;47.726;3.298;2023-05-16T03:50:13;99283.88;;;8.98
61703;BMP280;47622;47.726;3.298;2023-05-16T03:52:39;99278.47;;;8.95
61703;BMP280;47622;47.726;3.298;2023-05-16T03:55:05;99291.41;;;9.05
61703;BMP280;47622;47.726;3.298;2023-05-16T03:57:32;99278.94;;;8.97
61703;BMP280;47622;47.726;3.298;2023-05-16T03:59:57;99283.41;;;8.96
61703;BMP280;47622;47.726;3.298;2023-05-16T04:02:23;99289.06;;;9.03
61703;BMP280;47622;47.726;3.298;2023-05-16T04:04:49;99293.44;;;8.89
61703;BMP280;47622;47.726;3.298;2023-05-16T04:07:14;99282.53;;;8.82
61703;BMP280;47622;47.726;3.298;2023-05-16T04:09:40;99291.94;;;8.83
61703;BMP280;47622;47.726;3.298;2023-05-16T04:12:05;99295.81;;;8.85
61703;BMP280;47622;47.726;3.298;2023-05-16T04:14:32;99304.22;;;8.82
61703;BMP280;47622;47.726;3.298;2023-05-16T04:16:58;99300.09;;;8.76
61703;BMP280;47622;47.726;3.298;2023-05-16T04:19:24;99295.13;;;8.80
61703;BMP280;47622;47.726;3.298;2023-05-16T04:21:49;99308.28;;;8.75
61703;BMP280;47622;47.726;3.298;2023-05-16T04:24:16;99307.53;;;8.88
61703;BMP280;47622;47.726;3.298;2023-05-16T04:26:42;99315.34;;;8.74
61703;BMP280;47622;47.726;3.298;2023-05-16T04:29:07;99318.72;;;8.75
61703;BMP280;47622;47.726;3.298;2023-05-16T04:31:33;99318.72;;;8.75
61703;BMP280;47622;47.726;3.298;2023-05-16T04:34:00;99317.72;;;8.71
61703;BMP280;47622;47.726;3.298;2023-05-16T04:36:26;99322.50;;;8.64
61703;BMP280;47622;47.726;3.298;2023-05-16T04:38:54;99320.97;;;8.63
61703;BMP280;47622;47.726;3.298;2023-05-16T04:41:20;99327.16;;;8.67
61703;BMP280;47622;47.726;3.298;2023-05-16T04:43:47;99331.31;;;8.73
61703;BMP280;47622;47.726;3.298;2023-05-16T04:46:13;99336.53;;;8.73
61703;BMP280;47622;47.726;3.298;2023-05-16T04:48:40;99329.72;;;8.72
61703;BMP280;47622;47.726;3.298;2023-05-16T04:51:06;99337.72;;;8.56
61703;BMP280;47622;47.726;3.298;2023-05-16T04:53:31;99334.94;;;8.48
61703;BMP280;47622;47.726;3.298;2023-05-16T04:55:57;99329.63;;;8.34
61703;BMP280;47622;47.726;3.298;2023-05-16T04:58:23;99344.16;;;8.40
61703;BMP280;47622;47.726;3.298;2023-05-16T05:00:50;99350.53;;;8.29
61703;BMP280;47622;47.726;3.298;2023-05-16T05:03:15;99348.97;;;8.33
61703;BMP280;47622;47.726;3.298;2023-05-16T05:05:42;99340.28;;;8.38
61703;BMP280;47622;47.726;3.298;2023-05-16T05:08:08;99360.09;;;8.44
61703;BMP280;47622;47.726;3.298;2023-05-16T05:10:34;99350.31;;;8.54
61703;BMP280;47622;47.726;3.298;2023-05-16T05:13:01;99354.97;;;8.57
61703;BMP280;47622;47.726;3.298;2023-05-16T05:15:26;99349.91;;;8.42
61703;BMP280;47622;47.726;3.298;2023-05-16T05:17:52;99349.84;;;8.47
61703;BMP280;47622;47.726;3.298;2023-05-16T05:20:18;99354.28;;;8.52
61703;BMP280;47622;47.726;3.298;2023-05-16T05:22:44;99352.31;;;8.63
61703;BMP280;47622;47.726;3.298;2023-05-16T05:25:09;99360.06;;;8.73
61703;BMP280;47622;47.726;3.298;2023-05-16T05:27:35;99353.03;;;8.44
61703;BMP280;47622;47.726;3.298;2023-05-16T05:30:01;99364.34;;;8.64
61703;BMP280;47622;47.726;3.298;2023-05-16T05:32:27;99364.88;;;8.61
61703;BMP280;47622;47.726;3.298;2023-05-16T05:34:52;99372.31;;;8.48
61703;BMP280;47622;47.726;3.298;2023-05-16T05:37:18;99373.88;;;8.49
61703;BMP280;47622;47.726;3.298;2023-05-16T05:39:43;99379.66;;;8.46
61703;BMP280;47622;47.726;3.298;2023-05-16T05:42:09;99384.75;;;8.56
61703;BMP280;47622;47.726;3.298;2023-05-16T05:44:36;99373.34;;;8.52
61703;BMP280;47622;47.726;3.298;2023-05-16T05:47:03;99382.13;;;8.56
61703;BMP280;47622;47.726;3.298;2023-05-16T05:49:29;99384.97;;;8.65
61703;BMP280;47622;47.726;3.298;2023-05-16T05:51:55;99381.78;;;8.68
61703;BMP280;47622;47.726;3.298;2023-05-16T05:54:22;99396.03;;;8.81
61703;BMP280;47622;47.726;3.298;2023-05-16T05:56:47;99406.16;;;8.64
61703;BMP280;47622;47.726;3.298;2023-05-16T05:59:13;99410.78;;;8.67
61703;BMP280;47622;47.726;3.298;2023-05-16T06:01:39;99400.78;;;8.50
61703;BMP280;47622;47.726;3.298;2023-05-16T06:04:05;99413.41;;;8.67
61703;BMP280;47622;47.726;3.298;2023-05-16T06:06:31;99409.56;;;8.59
61703;BMP280;47622;47.726;3.298;2023-05-16T06:08:57;99409.56;;;8.59
61703;BMP280;47622;47.726;3.298;2023-05-16T06:11:23;99409.47;;;8.69
61703;BMP280;47622;47.726;3.298;2023-05-16T06:13:50;99405.63;;;8.62
61703;BMP280;47622;47.726;3.298;2023-05-16T06:16:16;99411.94;;;8.55
61703;BMP280;47622;47.726;3.298;2023-05-16T06:18:41;99410.25;;;8.70
61703;BMP280;47622;47.726;3.298;2023-05-16T06:21:07;99413.19;;;8.87
61703;BMP280;47622;47.726;3.298;2023-05-16T06:23:33;99414.72;;;8.93
61703;BMP280;47622;47.726;3.298;2023-05-16T06:26:00;99424.44;;;8.64
61703;BMP280;47622;47.726;3.298;2023-05-16T06:28:26;99420.00;;;8.64
61703;BMP280;47622;47.726;3.298;2023-05-16T06:30:51;99425.50;;;8.63
61703;BMP280;47622;47.726;3.298;2023-05-16T06:33:18;99429.81;;;8.72
61703;BMP280;47622;47.726;3.298;2023-05-16T06:35:43;99427.84;;;8.64
61703;BMP280;47622;47.726;3.298;2023-05-16T06:38:09;99422.81;;;8.68
61703;BMP280;47622;47.726;3.298;2023-05-16T06:40:34;99415.03;;;8.86
61703;BMP280;47622;47.726;3.298;2023-05-16T06:43:00;99421.59;;;8.60
61703;BMP280;47622;47.726;3.298;2023-05-16T06:45:26;99428.16;;;8.57
61703;BMP280;47622;47.726;3.298;2023-05-16T06:47:51;99431.47;;;8.92
61703;BMP280;47622;47.726;3.298;2023-05-16T06:50:17;99426.53;;;9.09
61703;BMP280;47622;47.726;3.298;2023-05-16T06:52:42;99428.22;;;9.43
61703;BMP280;47622;47.726;3.298;2023-05-16T06:55:08;99425.88;;;9.23
61703;BMP280;47622;47.726;3.298;2023-05-16T06:57:34;99421.59;;;9.32
61703;BMP280;47622;47.726;3.298;2023-05-16T07:00:00;99436.03;;;9.99
61703;BMP280;47622;47.726;3.298;2023-05-16T07:02:25;99430.00;;;9.85
61703;BMP280;47622;47.726;3.298;2023-05-16T07:04:51;99438.00;;;10.40
61703;BMP280;47622;47.726;3.298;2023-05-16T07:07:16;99438.22;;;10.44
61703;BMP280;47622;47.726;3.298;2023-05-16T07:09:42;99444.56;;;10.98
61703;BMP280;47622;47.726;3.298;2023-05-16T07:12:08;99432.34;;;10.19
61703;BMP280;47622;47.726;3.298;2023-05-16T07:14:33;99433.41;;;10.18
61703;BMP280;47622;47.726;3.298;2023-05-16T07:16:59;99438.72;;;11.01
61703;BMP280;47622;47.726;3.298;2023-05-16T07:19:24;99440.75;;;11.53
61703;BMP280;47622;47.726;3.298;2023-05-16T07:21:50;99437.75;;;12.93
61703;BMP280;47622;47.726;3.298;2023-05-16T07:24:15;99439.91;;;13.77
61703;BMP280;47622;47.726;3.298;2023-05-16T07:26:41;99437.47;;;13.55
61703;BMP280;47622;47.726;3.298;2023-05-16T07:29:06;99444.09;;;13.00
61703;BMP280;47622;47.726;3.298;2023-05-16T07:31:32;99445.69;;;13.19
61703;BMP280;47622;47.726;3.298;2023-05-16T07:33:59;99438.25;;;13.12
61703;BMP280;47622;47.726;3.298;2023-05-16T07:36:25;99436.91;;;12.66
61703;BMP280;47622;47.726;3.298;2023-05-16T07:38:53;99451.28;;;13.43
61703;BMP280;47622;47.726;3.298;2023-05-16T07:41:18;99447.81;;;14.41
61703;BMP280;47622;47.726;3.298;2023-05-16T07:43:44;99459.19;;;14.24
61703;BMP280;47622;47.726;3.298;2023-05-16T07:46:10;99457.81;;;14.18
61703;BMP280;47622;47.726;3.298;2023-05-16T07:48:35;99453.72;;;14.38
61703;BMP280;47622;47.726;3.298;2023-05-16T07:51:01;99473.09;;;13.26
61703;BMP280;47622;47.726;3.298;2023-05-16T07:53:28;99461.25;;;12.41
61703;BMP280;47622;47.726;3.298;2023-05-16T07:55:53;99453.19;;;12.06
61703;BMP280;47622;47.726;3.298;2023-05-16T07:58:19;99466.34;;;11.84
61703;BMP280;47622;47.726;3.298;2023-05-16T08:00:45;99456.88;;;12.05
61703;BMP280;47622;47.726;3.298;2023-05-16T08:03:10;99460.19;;;11.52
61703;BMP280;47622;47.726;3.298;2023-05-16T08:05:37;99465.97;;;11.77
61703;BMP280;47622;47.726;3.298;2023-05-16T08:08:04;99466.19;;;11.67
61703;BMP280;47622;47.726;3.298;2023-05-16T08:10:30;99465.28;;;12.16
61703;BMP280;47622;47.726;3.298;2023-05-16T08:12:55;99471.59;;;12.68
61703;BMP280;47622;47.726;3.298;2023-05-16T08:15:21;99474.75;;;14.17
61703;BMP280;47622;47.726;3.298;2023-05-16T08:17:48;99474.66;;;15.02
61703;BMP280;47622;47.726;3.298;2023-05-16T08:20:14;99472.66;;;15.20
61703;BMP280;47622;47.726;3.298;2023-05-16T08:22:39;99463.19;;;14.68
61703;BMP280;47622;47.726;3.298;2023-05-16T08:25:05;99472.66;;;13.67
61703;BMP280;47622;47.726;3.298;2023-05-16T08:27:31;99474.69;;;12.79
61703;BMP280;47622;47.726;3.298;2023-05-16T08:29:57;99466.75;;;13.19
61703;BMP280;47622;47.726;3.298;2023-05-16T08:32:23;99472.09;;;14.09
61703;BMP280;47622;47.726;3.298;2023-05-16T08:34:49;99468.13;;;14.41
61703;BMP280;47622;47.726;3.298;2023-05-16T08:37:14;99481.50;;;13.46
61703;BMP280;47622;47.726;3.298;2023-05-16T08:39:40;99472.13;;;12.88
61703;BMP280;47622;47.726;3.298;2023-05-16T08:42:06;99480.38;;;14.45
61703;BMP280;47622;47.726;3.298;2023-05-16T08:44:34;99469.56;;;15.18
61703;BMP280;47622;47.726;3.298;2023-05-16T08:47:17;99479.88;;;14.90
61703;BMP280;47622;47.726;3.298;2023-05-16T08:49:43;99471.06;;;14.48
61703;BMP280;47622;47.726;3.298;2023-05-16T08:52:09;99476.53;;;15.02
61703;BMP280;47622;47.726;3.298;2023-05-16T08:54:36;99477.06;;;15.37
61703;BMP280;47622;47.726;3.298;2023-05-16T08:57:02;99480.31;;;14.62
61703;BMP280;47622;47.726;3.298;2023-05-16T08:59:29;99468.53;;;15.10
61703;BMP280;47622;47.726;3.298;2023-05-16T09:01:55;99483.31;;;16.83
61703;BMP280;47622;47.726;3.298;2023-05-16T09:04:21;99485.91;;;16.55
61703;BMP280;47622;47.726;3.298;2023-05-16T09:06:49;99493.16;;;16.58
61703;BMP280;47622;47.726;3.298;2023-05-16T09:09:16;99487.56;;;17.12
61703;BMP280;47622;47.726;3.298;2023-05-16T09:11:43;99487.34;;;17.05
61703;BMP280;47622;47.726;3.298;2023-05-16T09:14:08;99494.97;;;16.94
61703;BMP280;47622;47.726;3.298;2023-05-16T09:16:34;99494.06;;;16.38
61703;BMP280;47622;47.726;3.298;2023-05-16T09:19:00;99485.81;;;17.04
61703;BMP280;47622;47.726;3.298;2023-05-16T09:21:31;99491.16;;;16.92
61703;BMP280;47622;47.726;3.298;2023-05-16T09:24:07;99488.03;;;17.02
61703;BMP280;47622;47.726;3.298;2023-05-16T09:26:35;99483.31;;;15.98
61703;BMP280;47622;47.726;3.298;2023-05-16T09:29:09;99487.84;;;16.46
61703;BMP280;47622;47.726;3.298;2023-05-16T09:31:35;99483.22;;;16.19
61703;BMP280;47622;47.726;3.298;2023-05-16T09:34:09;99489.28;;;15.20
61703;BMP280;47622;47.726;3.298;2023-05-16T09:36:37;99493.19;;;15.56
61703;BMP280;47622;47.726;3.298;2023-05-16T09:39:05;99489.28;;;16.80
61703;BMP280;47622;47.726;3.298;2023-05-16T09:41:34;99503.69;;;16.10
61703;BMP280;47622;47.726;3.298;2023-05-16T09:44:04;99489.50;;;16.14
61703;BMP280;47622;47.726;3.298;2023-05-16T09:46:33;99485.44;;;16.66
61703;BMP280;47622;47.726;3.298;2023-05-16T09:48:59;99492.53;;;15.80
61703;BMP280;47622;47.726;3.298;2023-05-16T09:51:25;99501.09;;;16.22
61703;BMP280;47622;47.726;3.298;2023-05-16T09:53:51;99498.19;;;15.90
61703;BMP280;47622;47.726;3.298;2023-05-16T09:56:16;99503.19;;;15.83
61703;BMP280;47622;47.726;3.298;2023-05-16T09:58:43;99498.25;;;16.27
61703;BMP280;47622;47.726;3.298;2023-05-16T10:01:10;99495.81;;;16.22
61703;BMP280;47622;47.726;3.298;2023-05-16T10:03:40;99495.16;;;15.80
61703;BMP280;47622;47.726;3.298;2023-05-16T10:06:07;99505.09;;;15.62
61703;BMP280;47622;47.726;3.298;2023-05-16T10:08:34;99502.69;;;14.94
61703;BMP280;47622;47.726;3.298;2023-05-16T10:11:03;99503.75;;;16.58
61703;BMP280;47622;47.726;3.298;2023-05-16T10:13:30;99517.09;;;15.80
61703;BMP280;47622;47.726;3.298;2023-05-16T10:15:57;99502.59;;;15.66
61703;BMP280;47622;47.726;3.298;2023-05-16T10:18:31;99512.84;;;15.67
61703;BMP280;47622;47.726;3.298;2023-05-16T10:21:02;99495.09;;;15.14
61703;BMP280;47622;47.726;3.298;2023-05-16T10:23:29;99491.03;;;14.57
61703;BMP280;47622;47.726;3.298;2023-05-16T10:25:56;99503.63;;;14.90
61703;BMP280;47622;47.726;3.298;2023-05-16T10:28:22;99496.50;;;15.11
61703;BMP280;47622;47.726;3.298;2023-05-16T10:30:50;99507.91;;;15.45
61703;BMP280;47622;47.726;3.298;2023-05-16T10:33:17;99501.66;;;16.27
61703;BMP280;47622;47.726;3.298;2023-05-16T10:35:44;99507.59;;;16.73
61703;BMP280;47622;47.726;3.298;2023-05-16T10:38:13;99507.56;;;15.67
61703;BMP280;47622;47.726;3.298;2023-05-16T10:40:39;99487.09;;;14.72
61703;BMP280;47622;47.726;3.298;2023-05-16T10:43:07;99494.69;;;15.24
61703;BMP280;47622;47.726;3.298;2023-05-16T10:45:33;99499.44;;;15.51
61703;BMP280;47622;47.726;3.298;2023-05-16T10:48:04;99494.91;;;16.18
61703;BMP280;47622;47.726;3.298;2023-05-16T10:50:40;99493.75;;;17.04
61703;BMP280;47622;47.726;3.298;2023-05-16T11:12:00;99491.16;;;16.68
61703;BMP280;47622;47.726;3.298;2023-05-16T11:17:09;99491.72;;;17.97
61703;BMP280;47622;47.726;3.298;2023-05-16T11:19:39;99490.94;;;16.36
61703;BMP280;47622;47.726;3.298;2023-05-16T11:22:12;99497.16;;;17.45
61703;BMP280;47622;47.726;3.298;2023-05-16T11:25:01;99500.81;;;17.12
61703;BMP280;47622;47.726;3.298;2023-05-16T11:27:32;99489.78;;;16.98
61703;BMP280;47622;47.726;3.298;2023-05-16T11:30:01;99488.09;;;17.46
61703;BMP280;47622;47.726;3.298;2023-05-16T11:32:40;99503.53;;;17.56
61703;BMP280;47622;47.726;3.298;2023-05-16T11:35:08;99503.50;;;18.15
61703;BMP280;47622;47.726;3.298;2023-05-16T11:37:34;99500.84;;;16.88
61703;BMP280;47622;47.726;3.298;2023-05-16T11:40:06;99492.25;;;16.79
61703;BMP280;47622;47.726;3.298;2023-05-16T11:42:36;99495.38;;;16.81
61703;BMP280;47622;47.726;3.298;2023-05-16T11:45:14;99492.72;;;16.56
61703;BMP280;47622;47.726;3.298;2023-05-16T11:47:41;99487.09;;;17.10
61703;BMP280;47622;47.726;3.298;2023-05-16T11:52:36;99489.50;;;16.87
61703;BMP280;47622;47.726;3.298;2023-05-16T11:55:06;99492.81;;;16.48
61703;BMP280;47622;47.726;3.298;2023-05-16T11:57:32;99490.22;;;17.12
61703;BMP280;47622;47.726;3.298;2023-05-16T12:00:21;99482.19;;;16.84
61703;BMP280;47622;47.726;3.298;2023-05-16T12:02:49;99485.88;;;17.48
61703;BMP280;47622;47.726;3.298;2023-05-16T12:05:16;99495.22;;;17.30
61703;BMP280;47622;47.726;3.298;2023-05-16T12:07:43;99496.91;;;16.33
61703;BMP280;47622;47.726;3.298;2023-05-16T12:10:11;99487.81;;;17.07
61703;BMP280;47622;47.726;3.298;2023-05-16T12:12:39;99502.84;;;17.03
61703;BMP280;47622;47.726;3.298;2023-05-16T12:15:06;99492.25;;;17.03
61703;BMP280;47622;47.726;3.298;2023-05-16T12:17:36;99494.75;;;17.40
61703;BMP280;47622;47.726;3.298;2023-05-16T12:20:03;99496.47;;;17.20
61703;BMP280;47622;47.726;3.298;2023-05-16T12:22:30;99493.00;;;17.32
61703;BMP280;47622;47.726;3.298;2023-05-16T12:24:58;99484.09;;;16.96
61703;BMP280;47622;47.726;3.298;2023-05-16T12:27:24;99488.72;;;16.87
61703;BMP280;47622;47.726;3.298;2023-05-16T12:29:51;99489.59;;;16.79
61703;BMP280;47622;47.726;3.298;2023-05-16T12:32:20;99479.56;;;17.24
61703;BMP280;47622;47.726;3.298;2023-05-16T12:34:49;99485.16;;;16.95
61703;BMP280;47622;47.726;3.298;2023-05-16T12:37:20;99492.72;;;17.21
61703;BMP280;47622;47.726;3.298;2023-05-16T12:39:45;99496.09;;;17.34
61703;BMP280;47622;47.726;3.298;2023-05-16T12:42:13;99484.69;;;17.05
61703;BMP280;47622;47.726;3.298;2023-05-16T12:44:44;99473.88;;;17.54
61703;BMP280;47622;47.726;3.298;2023-05-16T12:47:10;99474.63;;;16.46
61703;BMP280;47622;47.726;3.298;2023-05-16T12:49:46;99484.44;;;16.21
61703;BMP280;47622;47.726;3.298;2023-05-16T12:52:19;99485.84;;;16.92
61703;BMP280;47622;47.726;3.298;2023-05-16T12:54:45;99486.75;;;17.24
61703;BMP280;47622;47.726;3.298;2023-05-16T12:57:11;99481.66;;;16.79
61703;BMP280;47622;47.726;3.298;2023-05-16T12:59:37;99483.88;;;16.52
61703;BMP280;47622;47.726;3.298;2023-05-16T13:02:02;99482.56;;;16.71
61703;BMP280;47622;47.726;3.298;2023-05-16T13:04:30;99487.63;;;17.56
61703;BMP280;47622;47.726;3.298;2023-05-16T13:06:56;99498.00;;;17.21
61703;BMP280;47622;47.726;3.298;2023-05-16T13:09:22;99493.50;;;15.75
61703;BMP280;47622;47.726;3.298;2023-05-16T13:11:48;99496.81;;;16.54
61703;BMP280;47622;47.726;3.298;2023-05-16T13:14:15;99481.38;;;15.74
61703;BMP280;47622;47.726;3.298;2023-05-16T13:16:42;99489.50;;;16.63
61703;BMP280;47622;47.726;3.298;2023-05-16T13:19:08;99489.19;;;16.77
61703;BMP280;47622;47.726;3.298;2023-05-16T13:21:35;99484.22;;;16.14
61703;BMP280;47622;47.726;3.298;2023-05-16T13:24:00;99499.66;;;16.12
61703;BMP280;47622;47.726;3.298;2023-05-16T13:26:27;99486.50;;;16.89
61703;BMP280;47622;47.726;3.298;2023-05-16T13:28:54;99487.31;;;17.45
61703;BMP280;47622;47.726;3.298;2023-05-16T13:31:20;99500.38;;;16.98
61703;BMP280;47622;47.726;3.298;2023-05-16T13:33:49;99490.00;;;16.93
61703;BMP280;47622;47.726;3.298;2023-05-16T13:36:15;99493.22;;;17.39
61703;BMP280;47622;47.726;3.298;2023-05-16T13:38:40;99483.28;;;17.36
61703;BMP280;47622;47.726;3.298;2023-05-16T13:41:06;99488.97;;;17.50
61703;BMP280;47622;47.726;3.298;2023-05-16T13:43:32;99486.31;;;16.82
61703;BMP280;47622;47.726;3.298;2023-05-16T13:45:57;99494.38;;;16.49
61703;BMP280;47622;47.726;3.298;2023-05-16T13:48:23;99488.00;;;17.42
61703;BMP280;47622;47.726;3.298;2023-05-16T13:50:49;99483.47;;;17.43
61703;BMP280;47622;47.726;3.298;2023-05-16T13:53:16;99490.00;;;17.05
61703;BMP280;47622;47.726;3.298;2023-05-16T13:55:41;99475.94;;;16.77
61703;BMP280;47622;47.726;3.298;2023-05-16T13:58:07;99483.28;;;17.08
61703;BMP280;47622;47.726;3.298;2023-05-16T14:00:34;99490.28;;;17.16
61703;BMP280;47622;47.726;3.298;2023-05-16T14:02:59;99496.09;;;17.34
61703;BMP280;47622;47.726;3.298;2023-05-16T14:05:25;99494.03;;;16.87
61703;BMP280;47622;47.726;3.298;2023-05-16T14:07:52;99496.69;;;16.38
61703;BMP280;47622;47.726;3.298;2023-05-16T14:10:17;99494.03;;;16.63
61703;BMP280;47622;47.726;3.298;2023-05-16T14:12:43;99501.06;;;15.98
61703;BMP280;47622;47.726;3.298;2023-05-16T14:15:08;99486.28;;;16.21
61703;BMP280;47622;47.726;3.298;2023-05-16T14:17:34;99501.13;;;15.89
61703;BMP280;47622;47.726;3.298;2023-05-16T14:20:00;99503.56;;;15.61
61703;BMP280;47622;47.726;3.298;2023-05-16T14:22:25;99503.91;;;15.39
61703;BMP280;47622;47.726;3.298;2023-05-16T14:24:52;99493.38;;;15.84
61703;BMP280;47622;47.726;3.298;2023-05-16T14:27:18;99491.78;;;15.91
61703;BMP280;47622;47.726;3.298;2023-05-16T14:29:43;99495.53;;;16.15
61703;BMP280;47622;47.726;3.298;2023-05-16T14:32:09;99497.13;;;15.71
61703;BMP280;47622;47.726;3.298;2023-05-16T14:34:36;99500.63;;;16.08
61703;BMP280;47622;47.726;3.298;2023-05-16T14:37:01;99501.44;;;15.87
61703;BMP280;47622;47.726;3.298;2023-05-16T14:39:27;99495.97;;;16.05
61703;BMP280;47622;47.726;3.298;2023-05-16T14:41:52;99513.47;;;16.54
61703;BMP280;47622;47.726;3.298;2023-05-16T14:44:18;99509.03;;;16.58
61703;BMP280;47622;47.726;3.298;2023-05-16T14:46:46;99504.53;;;16.35